createdAt,value
2023-01-22T00:03:44.694Z,1.06
2023-01-22T00:07:54.056Z,1.06
2023-01-22T00:12:01.801Z,1.09
2023-01-22T00:16:12.036Z,1.15
2023-01-22T00:20:20.941Z,1.15
2023-01-22T00:24:29.128Z,1.11
2023-01-22T00:28:37.959Z,1.06
2023-01-22T00:32:46.947Z,1.05
2023-01-22T00:36:55.968Z,1.07
2023-01-22T00:41:05.906Z,1.07
2023-01-22T00:45:15.856Z,1.13
2023-01-22T00:49:23.707Z,1.18
2023-01-22T00:53:31.281Z,1.14
2023-01-22T00:57:39.786Z,1.13
2023-01-22T01:01:47.882Z,1.16
2023-01-22T01:05:55.919Z,1.21
2023-01-22T01:10:03.773Z,1.25
2023-01-22T01:14:12.831Z,1.28
2023-01-22T01:18:22.527Z,1.28
2023-01-22T01:22:30.546Z,1.23
2023-01-22T01:26:37.994Z,1.19
2023-01-22T01:30:46.615Z,1.19
2023-01-22T01:34:54.491Z,1.23
2023-01-22T01:39:03.567Z,1.26
2023-01-22T01:43:17.019Z,1.28
2023-01-22T01:47:31.478Z,1.28
2023-01-22T01:51:39.839Z,1.29
2023-01-22T01:55:47.604Z,1.28
2023-01-22T01:59:56.066Z,1.27
2023-01-22T02:04:04.318Z,1.25
2023-01-22T02:08:12.620Z,1.23
2023-01-22T02:12:20.505Z,1.23
2023-01-22T02:16:28.600Z,1.27
2023-01-22T02:20:38.577Z,1.33
2023-01-22T02:24:46.336Z,1.36
2023-01-22T02:28:53.894Z,1.36
2023-01-22T02:33:01.995Z,1.30
2023-01-22T02:37:11.358Z,1.26
2023-01-22T02:41:19.504Z,1.27
2023-01-22T02:45:27.629Z,1.32
2023-01-22T02:49:35.444Z,1.35
2023-01-22T02:53:42.881Z,1.32
2023-01-22T02:57:50.852Z,1.27
2023-01-22T03:01:58.586Z,1.25
2023-01-22T03:06:07.061Z,1.26
2023-01-22T03:10:18.915Z,1.30
2023-01-22T03:14:43.852Z,1.30
2023-01-22T03:19:08.601Z,1.27
2023-01-22T03:23:16.604Z,1.24
2023-01-22T03:27:25.977Z,1.26
2023-01-22T03:31:34.055Z,1.31
2023-01-22T03:35:42.181Z,1.37
2023-01-22T03:39:50.147Z,1.36
2023-01-22T03:43:59.171Z,1.32
2023-01-22T03:48:07.623Z,1.25
2023-01-22T03:52:15.877Z,1.21
2023-01-22T03:56:26.467Z,1.19
2023-01-22T04:00:34.256Z,1.19
2023-01-22T04:04:44.711Z,1.21
2023-01-22T04:08:54.758Z,1.17
2023-01-22T04:13:02.486Z,1.14
2023-01-22T04:17:10.984Z,1.12
2023-01-22T04:21:19.165Z,1.09
2023-01-22T04:25:27.729Z,1.13
2023-01-22T04:29:35.318Z,1.19
2023-01-22T04:33:43.385Z,1.24
2023-01-22T04:37:51.375Z,1.26
2023-01-22T04:41:59.680Z,1.19
2023-01-22T04:46:08.284Z,1.13
2023-01-22T04:50:18.373Z,1.12
2023-01-22T04:54:26.618Z,1.06
2023-01-22T04:58:34.374Z,1.04
2023-01-22T05:02:43.960Z,1.08
2023-01-22T05:06:51.958Z,1.07
2023-01-22T05:11:04.132Z,1.03
2023-01-22T05:15:23.576Z,0.99
2023-01-22T05:19:32.823Z,0.98
2023-01-22T05:23:40.918Z,1.00
2023-01-22T05:27:48.498Z,1.05
2023-01-22T05:31:56.029Z,1.06
2023-01-22T05:36:05.462Z,1.06
2023-01-22T05:40:14.931Z,1.06
2023-01-22T05:44:22.848Z,1.09
2023-01-22T05:48:30.418Z,1.17
2023-01-22T05:52:38.422Z,1.21
2023-01-22T05:56:45.592Z,1.22
2023-01-22T06:00:55.001Z,1.18
2023-01-22T06:05:03.260Z,1.13
2023-01-22T06:09:12.699Z,1.09
2023-01-22T06:13:20.404Z,1.10
2023-01-22T06:17:28.017Z,1.09
2023-01-22T06:21:37.097Z,1.07
2023-01-22T06:25:44.531Z,1.04
2023-01-22T06:29:52.102Z,1.02
2023-01-22T06:34:00.097Z,0.98
2023-01-22T06:38:08.993Z,0.91
2023-01-22T06:42:17.607Z,0.90
2023-01-22T06:46:25.350Z,0.90
2023-01-22T06:50:33.051Z,0.96
2023-01-22T06:54:40.466Z,1.00
2023-01-22T06:58:48.280Z,1.00
2023-01-22T07:02:57.536Z,0.99
2023-01-22T07:07:05.013Z,0.98
2023-01-22T07:11:15.694Z,0.98
2023-01-22T07:15:23.105Z,1.04
2023-01-22T07:19:30.846Z,1.13
2023-01-22T07:23:39.376Z,1.14
2023-01-22T07:27:47.752Z,1.14
2023-01-22T07:31:55.550Z,1.13
2023-01-22T07:36:03.147Z,1.12
2023-01-22T07:40:13.533Z,1.12
2023-01-22T07:44:21.941Z,1.17
2023-01-22T07:48:29.818Z,1.22
2023-01-22T07:52:37.374Z,1.28
2023-01-22T07:56:45.643Z,1.30
2023-01-22T08:00:54.180Z,1.29
2023-01-22T08:05:05.310Z,1.23
2023-01-22T08:09:15.682Z,1.19
2023-01-22T08:13:23.566Z,1.17
2023-01-22T08:17:31.279Z,1.18
2023-01-22T08:21:39.165Z,1.21
2023-01-22T08:25:47.110Z,1.21
2023-01-22T08:29:56.245Z,1.20
2023-01-22T08:34:04.437Z,1.13
2023-01-22T08:38:12.546Z,1.06
2023-01-22T08:42:20.001Z,1.05
2023-01-22T08:46:28.051Z,1.11
2023-01-22T08:50:35.946Z,1.15
2023-01-22T08:54:45.110Z,1.12
2023-01-22T08:58:53.593Z,1.09
2023-01-22T09:03:02.324Z,1.06
2023-01-22T09:07:11.216Z,1.04
2023-01-22T09:11:19.176Z,1.04
2023-01-22T09:15:27.588Z,1.09
2023-01-22T09:19:35.425Z,1.17
2023-01-22T09:23:43.353Z,1.25
2023-01-22T09:27:51.324Z,1.32
2023-01-22T09:32:00.131Z,1.36
2023-01-22T09:36:12.941Z,1.38
2023-01-22T09:40:27.535Z,1.40
2023-01-22T09:44:39.307Z,1.41
2023-01-22T09:48:49.772Z,1.46
2023-01-22T09:53:00.442Z,1.53
2023-01-22T09:57:14.846Z,1.56
2023-01-22T10:01:28.163Z,1.55
2023-01-22T10:05:39.212Z,1.55
2023-01-22T10:09:51.024Z,1.58
2023-01-22T10:14:00.366Z,1.64
2023-01-22T10:18:16.652Z,1.68
2023-01-22T10:22:26.879Z,1.70
2023-01-22T10:26:39.467Z,1.69
2023-01-22T10:30:51.742Z,1.66
2023-01-22T10:35:06.347Z,1.65
2023-01-22T10:39:16.125Z,1.65
2023-01-22T10:43:25.953Z,1.57
2023-01-22T10:47:33.817Z,1.54
2023-01-22T10:51:44.259Z,1.51
2023-01-22T10:55:57.111Z,1.51
2023-01-22T11:00:22.522Z,1.51
2023-01-22T11:04:31.739Z,1.55
2023-01-22T11:08:46.515Z,1.55
2023-01-22T11:12:59.745Z,1.52
2023-01-22T11:17:14.986Z,1.45
2023-01-22T11:21:24.885Z,1.41
2023-01-22T11:25:38.114Z,1.33
2023-01-22T11:30:00.992Z,1.35
2023-01-22T11:34:24.952Z,1.37
2023-01-22T11:38:38.893Z,1.39
2023-01-22T11:42:57.066Z,1.40
2023-01-22T11:47:18.666Z,1.39
2023-01-22T11:51:33.080Z,1.35
2023-01-22T11:55:54.912Z,1.30
2023-01-22T12:00:27.779Z,1.32
2023-01-22T12:05:10.252Z,1.41
2023-01-22T12:09:22.264Z,1.50
2023-01-22T12:14:02.897Z,1.58
2023-01-22T12:18:28.232Z,1.57
2023-01-22T12:22:39.836Z,1.56
2023-01-22T12:26:50.977Z,1.58
2023-01-22T12:31:02.704Z,1.59
2023-01-22T12:35:18.510Z,1.61
2023-01-22T12:39:29.883Z,1.61
2023-01-22T12:43:48.312Z,1.62
2023-01-22T12:48:00.229Z,1.59
2023-01-22T12:52:22.048Z,1.57
2023-01-22T12:56:35.405Z,1.54
2023-01-22T13:00:44.892Z,1.55
2023-01-22T13:04:53.121Z,1.54
2023-01-22T13:09:00.937Z,1.55
2023-01-22T13:13:21.963Z,1.59
2023-01-22T13:17:31.579Z,1.57
2023-01-22T13:21:40.153Z,1.54
2023-01-22T13:25:47.877Z,1.49
2023-01-22T13:30:06.967Z,1.50
2023-01-22T13:34:18.214Z,1.54
2023-01-22T13:38:27.969Z,1.62
2023-01-22T13:42:37.142Z,1.66
2023-01-22T13:46:44.673Z,1.67
2023-01-22T13:50:58.176Z,1.67
2023-01-22T13:55:09.001Z,1.65
2023-01-22T13:59:24.446Z,1.66
2023-01-22T14:03:31.861Z,1.70
2023-01-22T14:07:41.318Z,1.73
2023-01-22T14:11:50.127Z,1.70
2023-01-22T14:16:07.092Z,1.64
2023-01-22T14:20:16.344Z,1.56
2023-01-22T14:24:24.213Z,1.52
2023-01-22T14:28:32.811Z,1.54
2023-01-22T14:32:41.146Z,1.59
2023-01-22T14:36:49.696Z,1.63
2023-01-22T14:40:58.115Z,1.65
2023-01-22T14:45:06.798Z,1.63
2023-01-22T14:49:14.131Z,1.59
2023-01-22T14:53:22.447Z,1.58
2023-01-22T14:57:30.495Z,1.60
2023-01-22T15:01:37.887Z,1.63
2023-01-22T15:05:45.623Z,1.65
2023-01-22T15:09:53.214Z,1.65
2023-01-22T15:14:01.748Z,1.62
2023-01-22T15:18:11.821Z,1.55
2023-01-22T15:22:23.009Z,1.52
2023-01-22T15:26:35.212Z,1.55
2023-01-22T15:30:46.918Z,1.58
2023-01-22T15:34:54.883Z,1.60
2023-01-22T15:39:02.995Z,1.59
2023-01-22T15:43:10.968Z,1.55
2023-01-22T15:47:19.080Z,1.52
2023-01-22T15:51:27.433Z,1.53
2023-01-22T15:55:35.256Z,1.51
2023-01-22T15:59:44.017Z,1.53
2023-01-22T16:03:51.892Z,1.54
2023-01-22T16:07:59.551Z,1.50
2023-01-22T16:12:09.266Z,1.44
2023-01-22T16:16:20.540Z,1.42
2023-01-22T16:20:28.629Z,1.43
2023-01-22T16:24:36.179Z,1.43
2023-01-22T16:28:44.783Z,1.40
2023-01-22T16:32:53.789Z,1.36
2023-01-22T16:37:01.311Z,1.32
2023-01-22T16:41:29.177Z,1.31
2023-01-22T16:45:38.015Z,1.32
2023-01-22T16:49:46.101Z,1.34
2023-01-22T16:53:53.813Z,1.34
2023-01-22T16:58:01.395Z,1.28
2023-01-22T17:02:16.031Z,1.20
2023-01-22T17:06:27.943Z,1.20
2023-01-22T17:10:35.874Z,1.22
2023-01-22T17:14:46.565Z,1.24
2023-01-22T17:18:56.343Z,1.27
2023-01-22T17:23:04.337Z,1.26
2023-01-22T17:27:18.589Z,1.21
2023-01-22T17:31:27.190Z,1.19
2023-01-22T17:35:35.448Z,1.21
2023-01-22T17:39:46.117Z,1.22
2023-01-22T17:43:56.356Z,1.25
2023-01-22T17:48:04.627Z,1.30
2023-01-22T17:52:13.306Z,1.33
2023-01-22T17:56:23.054Z,1.31
2023-01-22T18:00:31.830Z,1.31
2023-01-22T18:04:40.247Z,1.31
2023-01-22T18:08:48.249Z,1.36
2023-01-22T18:12:56.267Z,1.43
2023-01-22T18:17:04.599Z,1.46
2023-01-22T18:21:16.696Z,1.43
2023-01-22T18:25:24.363Z,1.41
2023-01-22T18:29:32.215Z,1.37
2023-01-22T18:33:40.923Z,1.36
2023-01-22T18:37:51.771Z,1.39
2023-01-22T18:41:59.834Z,1.41
2023-01-22T18:46:11.214Z,1.41
2023-01-22T18:50:20.187Z,1.38
2023-01-22T18:54:29.326Z,1.35
2023-01-22T18:58:38.171Z,1.35
2023-01-22T19:02:46.131Z,1.39
2023-01-22T19:06:57.694Z,1.39
2023-01-22T19:11:07.118Z,1.42
2023-01-22T19:15:16.734Z,1.42
2023-01-22T19:19:25.472Z,1.45
2023-01-22T19:23:34.310Z,1.47
2023-01-22T19:27:41.823Z,1.52
2023-01-22T19:31:52.412Z,1.51
2023-01-22T19:36:00.453Z,1.47
2023-01-22T19:40:14.059Z,1.45
2023-01-22T19:44:22.130Z,1.42
2023-01-22T19:48:30.060Z,1.42
2023-01-22T19:52:37.988Z,1.39
2023-01-22T19:56:46.552Z,1.35
2023-01-22T20:00:58.170Z,1.32
2023-01-22T20:05:06.637Z,1.29
2023-01-22T20:09:17.782Z,1.25
2023-01-22T20:13:26.098Z,1.19
2023-01-22T20:17:37.491Z,1.15
2023-01-22T20:21:45.301Z,1.14
2023-01-22T20:25:53.657Z,1.15
2023-01-22T20:30:01.617Z,1.20
2023-01-22T20:34:09.829Z,1.24
2023-01-22T20:38:18.171Z,1.28
2023-01-22T20:42:26.315Z,1.28
2023-01-22T20:46:34.166Z,1.28
2023-01-22T20:50:44.785Z,1.29
2023-01-22T20:55:01.511Z,1.31
2023-01-22T20:59:11.687Z,1.36
2023-01-22T21:03:19.962Z,1.35
2023-01-22T21:07:27.943Z,1.34
2023-01-22T21:11:37.280Z,1.33
2023-01-22T21:15:45.377Z,1.34
2023-01-22T21:19:53.029Z,1.35
2023-01-22T21:24:01.493Z,1.37
2023-01-22T21:28:10.854Z,1.42
2023-01-22T21:32:20.511Z,1.48
2023-01-22T21:36:28.016Z,1.54
2023-01-22T21:40:35.709Z,1.57
2023-01-22T21:45:00.928Z,1.56
2023-01-22T21:49:21.462Z,1.53
2023-01-22T21:53:29.732Z,1.59
2023-01-22T21:57:39.262Z,1.63
2023-01-22T22:01:50.339Z,1.68
2023-01-22T22:06:02.355Z,1.69
2023-01-22T22:10:15.014Z,1.65
2023-01-22T22:14:23.029Z,1.63
2023-01-22T22:18:30.650Z,1.64
2023-01-22T22:22:39.144Z,1.65
2023-01-22T22:26:47.827Z,1.68
2023-01-22T22:31:03.011Z,1.71
2023-01-22T22:35:11.828Z,1.76
2023-01-22T22:39:19.641Z,1.78
2023-01-22T22:43:27.496Z,1.77
2023-01-22T22:47:38.010Z,1.74
2023-01-22T22:51:46.757Z,1.70
2023-01-22T22:55:54.452Z,1.70
2023-01-22T23:00:04.607Z,1.73
2023-01-22T23:04:12.834Z,1.76
2023-01-22T23:08:20.071Z,1.79
2023-01-22T23:12:28.451Z,1.78
2023-01-22T23:16:37.630Z,1.74
2023-01-22T23:20:45.882Z,1.72
2023-01-22T23:24:54.753Z,1.74
2023-01-22T23:29:03.965Z,1.75
2023-01-22T23:33:12.637Z,1.76
2023-01-22T23:37:20.648Z,1.78
2023-01-22T23:41:28.819Z,1.77
2023-01-22T23:45:40.817Z,1.78
2023-01-22T23:49:48.706Z,1.73
2023-01-22T23:53:57.052Z,1.70
2023-01-22T23:58:04.793Z,1.68
